createdAt,value
2023-05-19T00:01:56.693Z,151101.50
2023-05-19T00:04:22.974Z,151044.56
2023-05-19T00:06:51.057Z,151010.47
2023-05-19T00:09:17.405Z,150986.41
2023-05-19T00:11:43.518Z,150952.28
2023-05-19T00:14:09.968Z,150952.28
2023-05-19T00:16:41.479Z,150957.38
2023-05-19T00:19:10.161Z,150968.72
2023-05-19T00:21:39.631Z,150939.66
2023-05-19T00:24:06.377Z,150963.66
2023-05-19T00:26:32.354Z,150952.28
2023-05-19T00:28:58.267Z,150916.88
2023-05-19T00:31:24.456Z,150913.09
2023-05-19T00:33:51.296Z,150942.19
2023-05-19T00:36:17.245Z,150913.09
2023-05-19T00:38:43.153Z,150894.13
2023-05-19T00:41:09.076Z,150937.09
2023-05-19T00:43:34.969Z,150939.66
2023-05-19T00:46:01.595Z,150949.75
2023-05-19T00:48:27.523Z,150951.00
2023-05-19T00:51:01.240Z,150951.00
2023-05-19T00:53:28.570Z,150951.00
2023-05-19T00:55:54.435Z,150923.22
2023-05-19T00:58:20.416Z,150899.19
2023-05-19T01:00:46.418Z,150935.84
2023-05-19T01:03:12.688Z,150952.28
2023-05-19T01:05:44.016Z,150952.28
2023-05-19T01:08:10.118Z,150975.06
2023-05-19T01:10:36.591Z,150994.03
2023-05-19T01:13:03.909Z,150977.59
2023-05-19T01:15:33.131Z,150996.53
2023-05-19T01:18:13.667Z,151037.00
2023-05-19T01:20:47.420Z,151005.38
2023-05-19T01:23:53.587Z,150969.97
2023-05-19T01:26:41.303Z,150967.44
2023-05-19T01:29:42.099Z,150957.38
2023-05-19T01:32:10.119Z,150915.63
2023-05-19T01:34:42.312Z,150929.53
2023-05-19T01:37:09.259Z,150948.50
2023-05-19T01:39:35.638Z,150886.53
2023-05-19T01:42:03.134Z,150861.22
2023-05-19T01:44:29.125Z,150857.44
2023-05-19T01:46:55.500Z,150876.41
2023-05-19T01:49:21.462Z,150846.06
2023-05-19T01:51:48.656Z,150832.19
2023-05-19T01:54:14.618Z,150786.69
2023-05-19T01:57:20.521Z,150825.84
2023-05-19T02:00:15.704Z,150799.31
2023-05-19T02:03:02.242Z,150815.75
2023-05-19T02:05:35.048Z,150828.34
2023-05-19T02:08:11.010Z,150803.09
2023-05-19T02:10:40.617Z,150810.66
2023-05-19T02:13:10.604Z,150785.41
2023-05-19T02:15:41.545Z,150817.00
2023-05-19T02:18:11.163Z,150823.31
2023-05-19T02:20:38.711Z,150828.34
2023-05-19T02:23:04.640Z,150851.13
2023-05-19T02:25:30.952Z,150839.75
2023-05-19T02:27:57.596Z,150852.41
2023-05-19T02:30:23.629Z,150848.63
2023-05-19T02:32:49.575Z,150857.44
2023-05-19T02:35:15.715Z,150873.88
2023-05-19T02:37:41.557Z,150823.31
2023-05-19T02:40:08.209Z,150795.53
2023-05-19T02:42:34.052Z,150835.97
2023-05-19T02:45:00.148Z,150819.53
2023-05-19T02:47:25.987Z,150818.28
2023-05-19T02:49:51.925Z,150824.56
2023-05-19T02:52:17.804Z,150829.66
2023-05-19T02:54:43.870Z,150805.63
2023-05-19T02:57:10.484Z,150785.41
2023-05-19T02:59:36.696Z,150792.97
2023-05-19T03:02:02.987Z,150780.38
2023-05-19T03:04:29.452Z,150776.59
2023-05-19T03:06:55.706Z,150763.94
2023-05-19T03:09:21.605Z,150789.19
2023-05-19T03:11:47.469Z,150736.13
2023-05-19T03:14:13.359Z,150746.25
2023-05-19T03:16:43.100Z,150734.88
2023-05-19T03:19:09.415Z,150710.88
2023-05-19T03:21:36.026Z,150720.97
2023-05-19T03:24:02.637Z,150717.19
2023-05-19T03:26:31.843Z,150715.94
2023-05-19T03:28:57.690Z,150722.28
2023-05-19T03:31:23.813Z,150719.69
2023-05-19T03:33:49.784Z,150669.22
2023-05-19T03:36:16.808Z,150717.19
2023-05-19T03:38:42.675Z,150719.69
2023-05-19T03:41:08.532Z,150666.66
2023-05-19T03:43:34.416Z,150688.16
2023-05-19T03:46:01.482Z,150662.88
2023-05-19T03:48:27.369Z,150702.03
2023-05-19T03:50:53.661Z,150688.16
2023-05-19T03:53:19.874Z,150662.88
2023-05-19T03:55:46.893Z,150696.97
2023-05-19T03:58:13.857Z,150661.59
2023-05-19T04:00:40.259Z,150713.41
2023-05-19T04:03:06.258Z,150710.88
2023-05-19T04:05:34.293Z,150726.06
2023-05-19T04:08:00.175Z,150732.34
2023-05-19T04:10:26.119Z,150726.06
2023-05-19T04:12:52.009Z,150714.66
2023-05-19T04:15:17.876Z,150714.66
2023-05-19T04:17:43.859Z,150723.53
2023-05-19T04:20:10.458Z,150733.59
2023-05-19T04:22:36.329Z,150743.75
2023-05-19T04:25:03.995Z,150737.38
2023-05-19T04:27:31.250Z,150758.91
2023-05-19T04:29:57.484Z,150780.38
2023-05-19T04:32:23.584Z,150803.09
2023-05-19T04:34:49.539Z,150780.38
2023-05-19T04:37:19.569Z,150786.69
2023-05-19T04:39:45.792Z,150772.75
2023-05-19T04:42:12.650Z,150782.91
2023-05-19T04:44:39.445Z,150810.66
2023-05-19T04:47:07.977Z,150823.31
2023-05-19T04:49:38.270Z,150815.75
2023-05-19T04:52:10.172Z,150823.31
2023-05-19T04:54:37.016Z,150825.84
2023-05-19T04:57:03.465Z,150894.13
2023-05-19T04:59:29.393Z,150885.25
2023-05-19T05:01:55.692Z,150856.19
2023-05-19T05:04:23.386Z,150877.66
2023-05-19T05:06:49.742Z,150867.56
2023-05-19T05:09:17.116Z,150856.19
2023-05-19T05:11:43.736Z,150921.97
2023-05-19T05:14:10.120Z,150895.41
2023-05-19T05:16:36.516Z,150889.09
2023-05-19T05:19:02.771Z,150877.66
2023-05-19T05:21:29.055Z,150873.88
2023-05-19T05:23:55.262Z,150906.78
2023-05-19T05:26:24.304Z,150925.75
2023-05-19T05:28:50.486Z,150982.63
2023-05-19T05:31:16.366Z,150999.06
2023-05-19T05:33:42.831Z,150995.28
2023-05-19T05:36:08.956Z,150977.59
2023-05-19T05:38:35.480Z,150976.31
2023-05-19T05:41:02.681Z,150985.16
2023-05-19T05:43:29.244Z,151000.31
2023-05-19T05:45:56.281Z,151018.03
2023-05-19T05:48:22.634Z,151054.69
2023-05-19T05:50:49.524Z,151073.66
2023-05-19T05:53:19.766Z,151087.59
2023-05-19T05:55:47.126Z,151081.28
2023-05-19T05:58:14.859Z,151078.69
2023-05-19T06:00:42.838Z,151063.56
2023-05-19T06:03:10.406Z,151130.56
2023-05-19T06:05:37.205Z,151172.34
2023-05-19T06:08:03.603Z,151143.22
2023-05-19T06:10:29.570Z,151139.44
2023-05-19T06:12:55.822Z,151150.78
2023-05-19T06:15:21.923Z,151192.56
2023-05-19T06:17:47.840Z,151173.59
2023-05-19T06:20:13.970Z,151188.75
2023-05-19T06:22:39.859Z,151200.13
2023-05-19T06:25:08.287Z,151233.03
2023-05-19T06:27:34.986Z,151262.16
2023-05-19T06:30:02.472Z,151240.59
2023-05-19T06:32:29.152Z,151255.81
2023-05-19T06:34:55.294Z,151296.28
2023-05-19T06:37:22.278Z,151327.94
2023-05-19T06:39:52.889Z,151360.88
2023-05-19T06:42:23.361Z,151383.66
2023-05-19T06:44:49.823Z,151410.25
2023-05-19T06:47:20.855Z,151421.63
2023-05-19T06:49:49.994Z,151467.22
2023-05-19T06:52:16.434Z,151510.25
2023-05-19T06:54:42.320Z,151550.81
2023-05-19T06:57:08.244Z,151560.91
2023-05-19T06:59:34.119Z,151605.28
2023-05-19T07:02:01.767Z,151657.16
2023-05-19T07:04:27.728Z,151668.56
2023-05-19T07:06:54.335Z,151724.31
2023-05-19T07:09:20.274Z,151699.00
2023-05-19T07:11:46.597Z,151725.56
2023-05-19T07:14:12.586Z,151749.72
2023-05-19T07:16:38.587Z,151757.31
2023-05-19T07:19:04.700Z,151813.06
2023-05-19T07:21:30.832Z,151804.22
2023-05-19T07:23:56.805Z,151799.13
2023-05-19T07:26:22.905Z,151801.69
2023-05-19T07:28:49.301Z,151809.28
2023-05-19T07:31:16.534Z,151844.75
2023-05-19T07:33:42.423Z,151827.00
2023-05-19T07:36:08.605Z,151906.84
2023-05-19T07:38:35.023Z,151942.34
2023-05-19T07:41:02.113Z,151930.97
2023-05-19T07:43:28.343Z,151911.94
2023-05-19T07:45:55.694Z,151905.59
2023-05-19T07:48:23.915Z,151911.94
2023-05-19T07:50:50.426Z,151955.03
2023-05-19T07:53:16.493Z,151969.00
2023-05-19T07:55:42.406Z,151966.47
2023-05-19T07:58:08.374Z,151966.47
2023-05-19T08:00:34.615Z,151970.25
2023-05-19T08:03:01.598Z,151922.06
2023-05-19T08:05:29.137Z,151866.31
2023-05-19T08:07:56.853Z,151927.13
2023-05-19T08:10:22.748Z,152018.47
2023-05-19T08:12:48.770Z,152042.53
2023-05-19T08:15:15.860Z,152092.00
2023-05-19T08:17:41.768Z,152121.19
2023-05-19T08:20:09.494Z,152189.72
2023-05-19T08:22:35.952Z,152135.16
2023-05-19T08:25:04.911Z,152152.91
2023-05-19T08:27:31.422Z,152137.69
2023-05-19T08:29:57.318Z,152144.00
2023-05-19T08:32:23.375Z,152160.50
2023-05-19T08:34:49.621Z,152123.72
2023-05-19T08:37:15.675Z,152076.78
2023-05-19T08:39:41.719Z,152099.66
2023-05-19T08:42:09.185Z,152100.91
2023-05-19T08:44:40.562Z,152159.25
2023-05-19T08:47:12.045Z,152175.75
2023-05-19T08:49:45.745Z,152146.59
2023-05-19T08:52:31.509Z,152189.72
2023-05-19T08:55:08.843Z,152175.75
2023-05-19T08:57:36.189Z,152198.63
2023-05-19T09:00:08.465Z,152234.09
2023-05-19T09:02:37.211Z,152270.94
2023-05-19T09:05:04.705Z,152284.84
2023-05-19T09:07:34.144Z,152262.03
2023-05-19T09:10:01.304Z,152273.47
2023-05-19T09:12:27.557Z,152328.03
2023-05-19T09:14:53.744Z,152347.06
2023-05-19T09:17:20.370Z,152405.44
2023-05-19T09:19:47.521Z,152321.66
2023-05-19T09:22:15.629Z,152316.59
2023-05-19T09:24:41.856Z,152278.53
2023-05-19T09:27:07.834Z,152326.78
2023-05-19T09:29:33.830Z,152388.94
2023-05-19T09:32:01.209Z,152423.28
2023-05-19T09:34:27.296Z,152453.75
2023-05-19T09:36:53.669Z,152441.03
2023-05-19T09:39:22.327Z,152490.56
2023-05-19T09:41:57.836Z,152517.22
2023-05-19T09:44:32.095Z,152575.63
2023-05-19T09:46:59.168Z,152611.19
2023-05-19T09:49:30.496Z,152604.84
2023-05-19T09:51:57.808Z,152634.06
2023-05-19T09:54:24.923Z,152706.53
2023-05-19T09:57:01.963Z,152817.06
2023-05-19T09:59:32.031Z,152787.81
2023-05-19T10:02:00.008Z,152778.97
2023-05-19T10:04:27.714Z,152757.31
2023-05-19T10:06:55.307Z,152838.66
2023-05-19T10:09:26.536Z,152927.66
2023-05-19T10:11:54.010Z,152894.59
2023-05-19T10:14:24.463Z,152923.84
2023-05-19T10:16:51.988Z,153009.03
2023-05-19T10:19:22.597Z,153012.88
2023-05-19T10:21:50.366Z,153062.44
2023-05-19T10:24:17.064Z,153080.25
2023-05-19T10:26:46.045Z,152992.50
2023-05-19T10:29:15.189Z,153012.88
2023-05-19T10:31:41.286Z,153068.84
2023-05-19T10:34:36.862Z,153044.63
2023-05-19T10:37:38.160Z,153089.19
2023-05-19T10:40:12.981Z,153187.09
2023-05-19T10:43:06.719Z,153255.84
2023-05-19T10:45:41.167Z,153294.03
2023-05-19T10:48:13.235Z,153203.63
2023-05-19T10:50:39.205Z,153194.75
2023-05-19T10:53:14.236Z,153306.75
2023-05-19T10:55:58.378Z,153323.31
2023-05-19T10:58:42.953Z,153404.72
2023-05-19T11:01:17.541Z,153469.72
2023-05-19T11:04:05.207Z,153628.88
2023-05-19T11:06:37.465Z,153651.78
2023-05-19T11:09:19.613Z,153570.28
2023-05-19T11:11:53.185Z,153574.13
2023-05-19T11:14:25.786Z,153544.81
2023-05-19T11:17:00.653Z,153661.97
2023-05-19T11:19:28.334Z,153594.50
2023-05-19T11:21:55.843Z,153664.53
2023-05-19T11:24:34.551Z,153727.00
2023-05-19T11:27:30.388Z,153704.06
2023-05-19T11:30:01.377Z,153735.94
2023-05-19T11:32:29.734Z,153760.13
2023-05-19T11:34:57.152Z,153749.91
2023-05-19T11:37:23.232Z,153784.31
2023-05-19T11:39:49.454Z,153842.91
2023-05-19T11:42:15.890Z,153915.59
2023-05-19T11:44:45.466Z,153972.97
2023-05-19T11:47:13.056Z,154020.13
2023-05-19T11:49:42.874Z,154057.09
2023-05-19T11:52:08.856Z,154021.38
2023-05-19T11:54:36.011Z,154013.75
2023-05-19T11:57:03.081Z,153971.72
2023-05-19T11:59:38.389Z,153794.53
2023-05-19T12:02:19.543Z,153890.06
2023-05-19T12:04:48.732Z,153947.47
2023-05-19T12:07:23.055Z,153892.63
2023-05-19T12:09:54.691Z,153937.28
2023-05-19T12:12:22.245Z,153983.16
2023-05-19T12:14:51.356Z,153905.41
2023-05-19T12:17:19.150Z,153979.34
2023-05-19T12:19:48.823Z,154006.09
2023-05-19T12:22:16.365Z,154002.28
2023-05-19T12:24:44.186Z,154037.97
2023-05-19T12:27:13.480Z,153961.50
2023-05-19T12:29:40.122Z,154064.75
2023-05-19T12:32:09.782Z,154013.75
2023-05-19T12:34:37.517Z,153974.25
2023-05-19T12:37:06.837Z,154122.19
2023-05-19T12:39:33.205Z,154197.41
2023-05-19T12:42:10.168Z,154233.13
2023-05-19T12:44:51.695Z,154191.06
2023-05-19T12:47:19.273Z,154327.56
2023-05-19T12:49:56.288Z,154266.28
2023-05-19T12:52:22.942Z,154029.06
2023-05-19T12:54:49.933Z,154036.69
2023-05-19T12:57:16.372Z,154108.09
2023-05-19T12:59:42.798Z,154154.06
2023-05-19T13:02:08.932Z,154114.50
2023-05-19T13:04:35.449Z,154233.13
2023-05-19T13:07:01.442Z,154168.06
2023-05-19T13:09:27.876Z,154207.63
2023-05-19T13:11:54.187Z,154240.75
2023-05-19T13:14:20.232Z,154113.22
2023-05-19T13:16:46.620Z,154133.63
2023-05-19T13:19:25.372Z,154179.56
2023-05-19T13:21:52.123Z,154185.91
2023-05-19T13:24:18.102Z,154080.06
2023-05-19T13:26:44.565Z,154169.34
2023-05-19T13:29:11.312Z,154166.78
2023-05-19T13:31:37.322Z,154191.06
2023-05-19T13:34:03.327Z,154203.78
2023-05-19T13:36:29.282Z,154157.88
2023-05-19T13:38:55.300Z,154157.88
2023-05-19T13:41:28.760Z,154356.91
2023-05-19T13:44:01.006Z,154313.50
2023-05-19T13:46:40.716Z,154254.78
2023-05-19T13:49:11.069Z,154198.69
2023-05-19T13:51:38.767Z,154286.69
2023-05-19T13:54:04.646Z,154173.19
2023-05-19T13:56:30.994Z,154201.22
2023-05-19T13:58:57.217Z,154058.34
2023-05-19T14:01:23.273Z,154161.69
2023-05-19T14:03:49.379Z,154154.06
2023-05-19T14:06:15.499Z,154109.38
2023-05-19T14:08:41.680Z,154287.97
2023-05-19T14:11:07.613Z,154359.47
2023-05-19T14:13:36.271Z,154279.00
2023-05-19T14:16:05.881Z,154202.50
2023-05-19T14:18:31.992Z,154173.19
2023-05-19T14:20:58.089Z,154179.56
2023-05-19T14:23:23.978Z,154215.28
2023-05-19T14:25:49.881Z,154073.66
2023-05-19T14:28:15.808Z,154111.97
2023-05-19T14:30:42.112Z,154036.69
2023-05-19T14:33:09.617Z,154119.63
2023-05-19T14:35:35.553Z,154270.09
2023-05-19T14:38:01.439Z,154211.44
2023-05-19T14:40:27.378Z,154152.81
2023-05-19T14:42:53.329Z,154030.34
2023-05-19T14:45:19.234Z,154067.31
2023-05-19T14:47:45.863Z,154064.75
2023-05-19T14:50:12.972Z,154131.09
2023-05-19T14:52:38.936Z,154138.75
2023-05-19T14:55:05.130Z,154145.13
2023-05-19T14:57:31.164Z,153979.34
2023-05-19T14:59:57.046Z,153950.00
2023-05-19T15:02:23.022Z,154013.75
2023-05-19T15:04:48.987Z,154103.00
2023-05-19T15:07:14.914Z,154110.63
2023-05-19T15:09:40.757Z,154081.34
2023-05-19T15:12:06.653Z,154113.22
2023-05-19T15:14:32.572Z,154207.63
2023-05-19T15:16:59.259Z,154294.31
2023-05-19T15:19:25.358Z,154236.94
2023-05-19T15:21:51.402Z,154207.63
2023-05-19T15:24:17.337Z,154249.72
2023-05-19T15:26:43.297Z,154086.44
2023-05-19T15:29:09.127Z,154147.66
2023-05-19T15:31:37.367Z,154161.69
2023-05-19T15:34:05.627Z,154151.47
2023-05-19T15:36:31.510Z,154129.81
2023-05-19T15:38:57.460Z,154201.22
2023-05-19T15:41:23.358Z,154220.34
2023-05-19T15:43:49.408Z,154193.59
2023-05-19T15:46:15.478Z,154091.50
2023-05-19T15:48:41.433Z,154170.66
2023-05-19T15:51:07.320Z,154185.91
2023-05-19T15:53:33.213Z,154147.66
2023-05-19T15:55:59.113Z,154119.63
2023-05-19T15:58:25.135Z,154220.34
2023-05-19T16:00:51.171Z,154152.81
2023-05-19T16:03:21.755Z,154171.94
2023-05-19T16:05:47.704Z,154036.69
2023-05-19T16:08:13.640Z,154012.50
2023-05-19T16:10:39.550Z,154073.66
2023-05-19T16:13:05.481Z,154048.19
2023-05-19T16:15:31.376Z,153932.16
2023-05-19T16:17:57.345Z,153953.88
2023-05-19T16:20:27.209Z,153994.66
2023-05-19T16:22:53.624Z,154016.31
2023-05-19T16:25:19.700Z,154018.84
2023-05-19T16:27:45.607Z,153961.50
2023-05-19T16:30:12.079Z,153882.44
2023-05-19T16:32:38.084Z,153868.41
2023-05-19T16:35:04.764Z,153893.88
2023-05-19T16:37:30.807Z,153897.69
2023-05-19T16:39:56.712Z,153882.44
2023-05-19T16:42:22.718Z,153845.50
2023-05-19T16:44:48.732Z,153808.53
2023-05-19T16:47:14.867Z,153878.59
2023-05-19T16:49:40.914Z,153823.78
2023-05-19T16:52:07.332Z,153951.28
2023-05-19T16:54:33.668Z,153883.72
2023-05-19T16:56:59.986Z,153943.66
2023-05-19T16:59:26.102Z,153913.03
2023-05-19T17:01:52.134Z,153887.53
2023-05-19T17:04:18.041Z,153832.75
2023-05-19T17:06:45.455Z,153705.34
2023-05-19T17:09:12.042Z,153719.38
2023-05-19T17:11:38.237Z,153747.38
2023-05-19T17:14:07.365Z,153700.25
2023-05-19T17:16:36.949Z,153682.38
2023-05-19T17:19:03.520Z,153742.28
2023-05-19T17:21:30.777Z,153697.66
2023-05-19T17:23:56.694Z,153697.66
2023-05-19T17:26:22.634Z,153706.63
2023-05-19T17:28:48.516Z,153591.97
2023-05-19T17:31:15.133Z,153546.09
2023-05-19T17:33:41.081Z,153585.56
2023-05-19T17:36:08.311Z,153542.28
2023-05-19T17:38:34.630Z,153512.97
2023-05-19T17:41:01.694Z,153535.88
2023-05-19T17:43:28.031Z,153477.34
2023-05-19T17:45:54.030Z,153436.56
2023-05-19T17:48:20.469Z,153456.97
2023-05-19T17:50:47.450Z,153425.09
2023-05-19T17:53:14.788Z,153402.19
2023-05-19T17:55:41.332Z,153350.00
2023-05-19T17:58:07.836Z,153397.13
2023-05-19T18:00:34.112Z,153365.28
2023-05-19T18:03:01.147Z,153278.75
2023-05-19T18:05:27.520Z,153283.88
2023-05-19T18:07:55.373Z,153295.28
2023-05-19T18:10:22.013Z,153281.28
2023-05-19T18:12:47.958Z,153271.13
2023-05-19T18:15:13.918Z,153249.50
2023-05-19T18:17:39.860Z,153235.50
2023-05-19T18:20:06.624Z,153230.44
2023-05-19T18:22:32.567Z,153206.19
2023-05-19T18:24:58.440Z,153203.63
2023-05-19T18:27:24.432Z,153188.38
2023-05-19T18:29:50.479Z,153096.78
2023-05-19T18:32:17.105Z,153033.22
2023-05-19T18:34:43.123Z,153061.19
2023-05-19T18:37:09.073Z,153106.97
2023-05-19T18:39:35.113Z,153081.53
2023-05-19T18:42:01.268Z,153047.19
2023-05-19T18:44:27.676Z,152998.91
2023-05-19T18:46:54.155Z,152951.78
2023-05-19T18:49:20.310Z,152881.88
2023-05-19T18:51:47.856Z,152865.34
2023-05-19T18:54:14.225Z,152871.72
2023-05-19T18:56:40.847Z,152904.78
2023-05-19T18:59:08.277Z,152906.06
2023-05-19T19:01:34.229Z,152862.81
2023-05-19T19:04:01.216Z,152873.00
2023-05-19T19:06:27.550Z,152832.34
2023-05-19T19:08:53.483Z,152791.63
2023-05-19T19:11:19.482Z,152781.50
2023-05-19T19:13:45.619Z,152745.91
2023-05-19T19:16:11.574Z,152697.63
2023-05-19T19:18:37.574Z,152701.41
2023-05-19T19:21:04.914Z,152695.03
2023-05-19T19:23:31.146Z,152687.44
2023-05-19T19:25:57.152Z,152702.69
2023-05-19T19:28:23.139Z,152616.28
2023-05-19T19:30:49.093Z,152601.03
2023-05-19T19:33:15.293Z,152609.91
2023-05-19T19:35:43.255Z,152562.94
2023-05-19T19:38:09.205Z,152512.16
2023-05-19T19:40:35.465Z,152524.84
2023-05-19T19:43:01.694Z,152535.00
2023-05-19T19:45:27.560Z,152540.06
2023-05-19T19:47:53.651Z,152510.88
2023-05-19T19:50:19.720Z,152458.81
2023-05-19T19:52:45.595Z,152460.09
2023-05-19T19:55:11.649Z,152470.25
2023-05-19T19:57:37.590Z,152468.94
2023-05-19T20:00:07.698Z,152409.28
2023-05-19T20:02:35.254Z,152371.16
2023-05-19T20:05:01.440Z,152358.47
2023-05-19T20:07:27.924Z,152361.03
2023-05-19T20:09:55.373Z,152361.03
2023-05-19T20:12:21.758Z,152321.66
2023-05-19T20:14:50.549Z,152357.19
2023-05-19T20:17:17.084Z,152363.56
2023-05-19T20:19:43.407Z,152381.34
2023-05-19T20:22:09.529Z,152368.63
2023-05-19T20:24:35.522Z,152349.59
2023-05-19T20:27:01.659Z,152367.38
2023-05-19T20:29:27.557Z,152378.81
2023-05-19T20:31:55.499Z,152374.97
2023-05-19T20:34:22.574Z,152369.91
2023-05-19T20:36:48.594Z,152352.13
2023-05-19T20:39:14.511Z,152303.88
2023-05-19T20:41:40.533Z,152270.94
2023-05-19T20:44:07.621Z,152282.31
2023-05-19T20:46:33.592Z,152302.63
2023-05-19T20:48:59.739Z,152282.31
2023-05-19T20:51:26.552Z,152277.25
2023-05-19T20:53:52.917Z,152268.34
2023-05-19T20:56:19.447Z,152251.84
2023-05-19T20:58:45.593Z,152230.28
2023-05-19T21:01:11.560Z,152192.25
2023-05-19T21:03:37.489Z,152225.22
2023-05-19T21:06:03.649Z,152184.66
2023-05-19T21:08:29.529Z,152212.53
2023-05-19T21:10:55.547Z,152226.50
2023-05-19T21:13:21.407Z,152178.28
2023-05-19T21:15:47.343Z,152164.34
2023-05-19T21:18:13.429Z,152157.97
2023-05-19T21:20:39.608Z,152168.16
2023-05-19T21:23:05.576Z,152197.31
2023-05-19T21:25:31.573Z,152166.88
2023-05-19T21:28:00.395Z,152146.59
2023-05-19T21:30:26.410Z,152174.47
2023-05-19T21:32:52.595Z,152147.88
2023-05-19T21:35:18.574Z,152149.13
2023-05-19T21:37:44.454Z,152140.22
2023-05-19T21:40:10.977Z,152149.13
2023-05-19T21:42:36.893Z,152126.31
2023-05-19T21:45:03.073Z,152133.91
2023-05-19T21:47:28.991Z,152123.72
2023-05-19T21:49:54.948Z,152098.38
2023-05-19T21:52:21.128Z,152133.91
2023-05-19T21:54:47.229Z,152029.84
2023-05-19T21:57:13.150Z,152026.03
2023-05-19T21:59:39.056Z,152037.47
2023-05-19T22:02:05.592Z,152046.31
2023-05-19T22:04:31.602Z,152010.81
2023-05-19T22:07:00.321Z,152026.03
2023-05-19T22:09:26.256Z,152024.78
2023-05-19T22:11:52.170Z,151989.28
2023-05-19T22:14:18.130Z,151961.34
2023-05-19T22:16:44.247Z,151972.78
2023-05-19T22:19:10.848Z,151939.81
2023-05-19T22:21:36.768Z,151971.53
2023-05-19T22:24:02.785Z,151949.97
2023-05-19T22:26:29.010Z,151977.84
2023-05-19T22:28:55.056Z,151972.78
2023-05-19T22:31:21.067Z,151947.44
2023-05-19T22:33:46.929Z,151967.72
2023-05-19T22:36:15.288Z,151979.13
2023-05-19T22:38:41.214Z,151953.78
2023-05-19T22:41:07.094Z,151955.03
2023-05-19T22:43:32.922Z,151937.28
2023-05-19T22:45:58.803Z,151890.38
2023-05-19T22:48:24.681Z,151882.78
2023-05-19T22:50:50.569Z,151932.22
2023-05-19T22:53:16.392Z,151941.09
2023-05-19T22:55:42.345Z,151922.06
2023-05-19T22:58:08.329Z,151947.44
2023-05-19T23:00:34.340Z,151896.75
2023-05-19T23:03:03.289Z,151887.84
2023-05-19T23:05:29.243Z,151881.50
2023-05-19T23:07:55.168Z,151880.25
2023-05-19T23:10:21.017Z,151832.06
2023-05-19T23:12:47.004Z,151866.31
2023-05-19T23:15:12.897Z,151879.00
2023-05-19T23:17:38.701Z,151862.50
2023-05-19T23:20:05.441Z,151843.50
2023-05-19T23:22:31.400Z,151823.22
2023-05-19T23:24:57.406Z,151833.34
2023-05-19T23:27:23.338Z,151797.84
2023-05-19T23:29:50.203Z,151791.53
2023-05-19T23:32:16.205Z,151808.00
2023-05-19T23:34:42.299Z,151799.13
2023-05-19T23:37:08.234Z,151768.72
2023-05-19T23:39:34.204Z,151783.94
2023-05-19T23:42:00.185Z,151796.59
2023-05-19T23:44:26.563Z,151785.22
2023-05-19T23:46:52.505Z,151762.38
2023-05-19T23:49:19.179Z,151797.84
2023-05-19T23:51:45.000Z,151778.84
2023-05-19T23:54:10.946Z,151796.59
2023-05-19T23:56:37.351Z,151763.63
2023-05-19T23:59:03.377Z,151781.38
